首页
METAR-TAF:

METAR-TAF

机场 :

拉哥斯, 尼日利亚

穆尔塔拉·穆罕默德国际机场

纬度: 06-35N, 经度: 003-20E, 海拔: 40米

当前天气观测

该预报发布于53分钟前的06:00 UTC
静风
温度 26°C
湿度 94%
气压 1013 hPa
能见度10公里或以上
散云层高于1000英尺

METAR: DNMM 250600Z 00000KT 9999 SCT010 26/25 Q1013 NOSIG

时间: 07:53 (06:53 UTC)

预报

该预报发布于3小时和23分钟前的03:30 UTC
预报有效从25日的 06点(UTC)到 26日的 12点(UTC)
风速2节,风向多变
能见度10公里或以上
少量云层高于1000英尺
成为
从 25日的 08点(UTC)到 25日的 10点(UTC)
风速10节,风向西南
多云层高于1400英尺

TAF: DNMM 250330Z 2506/2612 VRB02KT 9999 FEW010 BECMG 2508/2510 22010KT BKN014

超过4000个机场的气象观测和天气预报(METAR&TAF报告)。

可查询的气象台以黄色和红色小点在地图上表示。

将鼠标移到小点上方,可查看气象台名称。

然后点击查看天气观测和预报。

如需切换地图:点击带黑十字的绿色按钮放大地图;点击带横线的绿色按钮缩小地图;或者点击绿色箭头查看邻近地区的地图。


METAR-TAF: